sensor_id;sensor_type;location;lat;lon;timestamp;pressure;altitude;pressure_sealevel;temperature;humidity
79028;BME280;68427;48.476;19.102;2023-06-22T00:00:45;97765.94;;;18.71;86.80
79028;BME280;68427;48.476;19.102;2023-06-22T00:03:12;97771.38;;;18.65;87.37
79028;BME280;68427;48.476;19.102;2023-06-22T00:05:37;97763.34;;;18.60;87.22
79028;BME280;68427;48.476;19.102;2023-06-22T00:08:04;97778.13;;;18.55;87.39
79028;BME280;68427;48.476;19.102;2023-06-22T00:10:31;97778.69;;;18.57;87.29
79028;BME280;68427;48.476;19.102;2023-06-22T00:12:58;97777.81;;;18.52;87.38
79028;BME280;68427;48.476;19.102;2023-06-22T00:15:24;97777.94;;;18.45;87.97
79028;BME280;68427;48.476;19.102;2023-06-22T00:17:51;97771.53;;;18.41;88.03
79028;BME280;68427;48.476;19.102;2023-06-22T00:20:17;97764.28;;;18.37;88.37
79028;BME280;68427;48.476;19.102;2023-06-22T00:22:43;97769.31;;;18.38;88.44
79028;BME280;68427;48.476;19.102;2023-06-22T00:25:10;97779.13;;;18.38;88.59
79028;BME280;68427;48.476;19.102;2023-06-22T00:27:36;97775.78;;;18.42;89.05
79028;BME280;68427;48.476;19.102;2023-06-22T00:30:02;97782.44;;;18.45;88.83
79028;BME280;68427;48.476;19.102;2023-06-22T00:32:28;97788.41;;;18.52;88.31
79028;BME280;68427;48.476;19.102;2023-06-22T00:34:55;97786.34;;;18.54;89.15
79028;BME280;68427;48.476;19.102;2023-06-22T00:37:21;97776.03;;;18.57;88.11
79028;BME280;68427;48.476;19.102;2023-06-22T00:39:51;97761.66;;;18.53;88.09
79028;BME280;68427;48.476;19.102;2023-06-22T00:42:16;97749.41;;;18.52;88.32
79028;BME280;68427;48.476;19.102;2023-06-22T00:44:42;97728.44;;;18.51;88.79
79028;BME280;68427;48.476;19.102;2023-06-22T00:47:09;97719.97;;;18.37;90.23
79028;BME280;68427;48.476;19.102;2023-06-22T00:49:35;97734.03;;;18.38;90.55
79028;BME280;68427;48.476;19.102;2023-06-22T00:52:02;97745.63;;;18.31;89.98
79028;BME280;68427;48.476;19.102;2023-06-22T00:54:28;97771.34;;;18.31;90.94
79028;BME280;68427;48.476;19.102;2023-06-22T00:56:54;97774.78;;;18.31;90.88
79028;BME280;68427;48.476;19.102;2023-06-22T00:59:21;97761.03;;;18.34;90.16
79028;BME280;68427;48.476;19.102;2023-06-22T01:01:48;97757.81;;;18.32;89.81
79028;BME280;68427;48.476;19.102;2023-06-22T01:04:14;97763.13;;;18.32;89.15
79028;BME280;68427;48.476;19.102;2023-06-22T01:06:47;97782.84;;;18.37;89.43
79028;BME280;68427;48.476;19.102;2023-06-22T01:09:21;97795.84;;;18.38;89.76
79028;BME280;68427;48.476;19.102;2023-06-22T01:11:54;97793.66;;;18.35;89.91
79028;BME280;68427;48.476;19.102;2023-06-22T01:14:23;97789.66;;;18.32;90.02
79028;BME280;68427;48.476;19.102;2023-06-22T01:16:52;97783.84;;;18.35;90.45
79028;BME280;68427;48.476;19.102;2023-06-22T01:19:35;97780.41;;;18.35;90.19
79028;BME280;68427;48.476;19.102;2023-06-22T01:22:04;97766.91;;;18.37;89.66
79028;BME280;68427;48.476;19.102;2023-06-22T01:24:37;97771.16;;;18.38;89.65
79028;BME280;68427;48.476;19.102;2023-06-22T01:27:17;97776.72;;;18.36;89.41
79028;BME280;68427;48.476;19.102;2023-06-22T01:29:56;97780.41;;;18.35;89.14
79028;BME280;68427;48.476;19.102;2023-06-22T01:32:27;97775.59;;;18.32;89.06
79028;BME280;68427;48.476;19.102;2023-06-22T01:34:53;97771.88;;;18.33;88.72
79028;BME280;68427;48.476;19.102;2023-06-22T01:37:19;97769.03;;;18.23;88.28
79028;BME280;68427;48.476;19.102;2023-06-22T01:39:46;97772.41;;;18.18;88.38
79028;BME280;68427;48.476;19.102;2023-06-22T01:42:12;97768.63;;;18.14;89.04
79028;BME280;68427;48.476;19.102;2023-06-22T01:44:38;97770.94;;;18.10;88.54
79028;BME280;68427;48.476;19.102;2023-06-22T01:47:06;97764.94;;;18.15;88.76
79028;BME280;68427;48.476;19.102;2023-06-22T01:49:32;97773.13;;;18.13;88.52
79028;BME280;68427;48.476;19.102;2023-06-22T01:51:58;97767.84;;;18.13;89.24
79028;BME280;68427;48.476;19.102;2023-06-22T01:54:24;97762.97;;;18.10;88.00
79028;BME280;68427;48.476;19.102;2023-06-22T01:56:49;97767.38;;;18.05;88.50
79028;BME280;68427;48.476;19.102;2023-06-22T01:59:21;97761.06;;;18.06;88.46
79028;BME280;68427;48.476;19.102;2023-06-22T02:01:54;97769.91;;;18.11;88.37
79028;BME280;68427;48.476;19.102;2023-06-22T02:04:27;97757.13;;;18.08;88.49
79028;BME280;68427;48.476;19.102;2023-06-22T02:06:57;97771.19;;;18.09;88.15
79028;BME280;68427;48.476;19.102;2023-06-22T02:09:25;97772.47;;;18.06;88.70
79028;BME280;68427;48.476;19.102;2023-06-22T02:11:56;97770.28;;;18.03;89.06
79028;BME280;68427;48.476;19.102;2023-06-22T02:14:23;97769.47;;;18.03;89.49
79028;BME280;68427;48.476;19.102;2023-06-22T02:16:50;97758.06;;;18.02;89.70
79028;BME280;68427;48.476;19.102;2023-06-22T02:19:16;97761.75;;;18.01;89.09
79028;BME280;68427;48.476;19.102;2023-06-22T02:21:45;97770.28;;;18.03;89.19
79028;BME280;68427;48.476;19.102;2023-06-22T02:24:11;97760.13;;;18.00;88.85
79028;BME280;68427;48.476;19.102;2023-06-22T02:26:37;97767.78;;;17.97;89.08
79028;BME280;68427;48.476;19.102;2023-06-22T02:29:05;97772.84;;;17.98;88.94
79028;BME280;68427;48.476;19.102;2023-06-22T02:31:30;97763.75;;;17.94;89.12
79028;BME280;68427;48.476;19.102;2023-06-22T02:33:57;97766.53;;;17.87;90.04
79028;BME280;68427;48.476;19.102;2023-06-22T02:36:23;97759.53;;;17.81;90.43
79028;BME280;68427;48.476;19.102;2023-06-22T02:38:50;97773.34;;;17.83;89.92
79028;BME280;68427;48.476;19.102;2023-06-22T02:41:16;97768.28;;;17.82;89.12
79028;BME280;68427;48.476;19.102;2023-06-22T02:43:45;97770.91;;;17.82;89.30
79028;BME280;68427;48.476;19.102;2023-06-22T02:46:11;97769.50;;;17.79;89.27
79028;BME280;68427;48.476;19.102;2023-06-22T02:48:39;97772.16;;;17.79;89.52
79028;BME280;68427;48.476;19.102;2023-06-22T02:51:05;97777.47;;;17.79;89.53
79028;BME280;68427;48.476;19.102;2023-06-22T02:53:31;97773.44;;;17.77;89.31
79028;BME280;68427;48.476;19.102;2023-06-22T02:56:00;97776.09;;;17.77;89.26
79028;BME280;68427;48.476;19.102;2023-06-22T02:58:26;97789.69;;;17.80;88.65
79028;BME280;68427;48.476;19.102;2023-06-22T03:00:52;97786.03;;;17.81;88.61
79028;BME280;68427;48.476;19.102;2023-06-22T03:03:21;97788.44;;;17.71;88.14
79028;BME280;68427;48.476;19.102;2023-06-22T03:05:46;97789.69;;;17.68;88.33
79028;BME280;68427;48.476;19.102;2023-06-22T03:08:12;97786.94;;;17.63;88.18
79028;BME280;68427;48.476;19.102;2023-06-22T03:10:38;97788.22;;;17.61;88.17
79028;BME280;68427;48.476;19.102;2023-06-22T03:13:05;97795.91;;;17.62;88.09
79028;BME280;68427;48.476;19.102;2023-06-22T03:15:30;97790.28;;;17.59;88.28
79028;BME280;68427;48.476;19.102;2023-06-22T03:17:57;97795.81;;;17.57;88.21
79028;BME280;68427;48.476;19.102;2023-06-22T03:20:23;97801.91;;;17.58;88.62
79028;BME280;68427;48.476;19.102;2023-06-22T03:22:49;97803.84;;;17.62;88.29
79028;BME280;68427;48.476;19.102;2023-06-22T03:25:15;97799.50;;;17.56;87.54
79028;BME280;68427;48.476;19.102;2023-06-22T03:27:41;97802.16;;;17.56;87.58
79028;BME280;68427;48.476;19.102;2023-06-22T03:30:10;97807.44;;;17.56;87.20
79028;BME280;68427;48.476;19.102;2023-06-22T03:32:36;97808.72;;;17.54;87.20
79028;BME280;68427;48.476;19.102;2023-06-22T03:35:02;97817.25;;;17.56;87.19
79028;BME280;68427;48.476;19.102;2023-06-22T03:37:28;97809.19;;;17.51;87.31
79028;BME280;68427;48.476;19.102;2023-06-22T03:39:54;97797.78;;;17.50;86.90
79028;BME280;68427;48.476;19.102;2023-06-22T03:42:20;97805.16;;;17.48;87.37
79028;BME280;68427;48.476;19.102;2023-06-22T03:44:46;97799.41;;;17.51;87.37
79028;BME280;68427;48.476;19.102;2023-06-22T03:47:13;97795.81;;;17.57;86.82
79028;BME280;68427;48.476;19.102;2023-06-22T03:49:38;97786.00;;;17.58;86.38
79028;BME280;68427;48.476;19.102;2023-06-22T03:52:05;97802.47;;;17.60;86.67
79028;BME280;68427;48.476;19.102;2023-06-22T03:54:31;97806.28;;;17.64;85.95
79028;BME280;68427;48.476;19.102;2023-06-22T03:56:58;97803.50;;;17.70;86.63
79028;BME280;68427;48.476;19.102;2023-06-22T03:59:24;97801.78;;;17.76;86.02
79028;BME280;68427;48.476;19.102;2023-06-22T04:01:49;97803.28;;;17.84;87.03
79028;BME280;68427;48.476;19.102;2023-06-22T04:04:18;97804.31;;;17.95;86.51
79028;BME280;68427;48.476;19.102;2023-06-22T04:06:44;97810.28;;;18.02;87.52
79028;BME280;68427;48.476;19.102;2023-06-22T04:09:10;97819.59;;;18.04;87.48
79028;BME280;68427;48.476;19.102;2023-06-22T04:11:35;97815.56;;;18.13;86.82
79028;BME280;68427;48.476;19.102;2023-06-22T04:14:01;97814.19;;;18.11;87.33
79028;BME280;68427;48.476;19.102;2023-06-22T04:16:27;97813.03;;;18.07;87.59
79028;BME280;68427;48.476;19.102;2023-06-22T04:18:52;97814.78;;;17.89;89.08
79028;BME280;68427;48.476;19.102;2023-06-22T04:21:19;97814.47;;;17.86;89.82
79028;BME280;68427;48.476;19.102;2023-06-22T04:23:45;97815.84;;;17.88;89.76
79028;BME280;68427;48.476;19.102;2023-06-22T04:26:11;97809.50;;;17.89;90.31
79028;BME280;68427;48.476;19.102;2023-06-22T04:28:37;97809.50;;;17.89;90.32
79028;BME280;68427;48.476;19.102;2023-06-22T04:31:03;97795.88;;;17.98;90.11
79028;BME280;68427;48.476;19.102;2023-06-22T04:33:29;97800.34;;;18.09;90.13
79028;BME280;68427;48.476;19.102;2023-06-22T04:35:55;97800.41;;;18.26;89.34
79028;BME280;68427;48.476;19.102;2023-06-22T04:38:24;97801.25;;;18.43;88.72
79028;BME280;68427;48.476;19.102;2023-06-22T04:40:50;97803.00;;;18.66;87.88
79028;BME280;68427;48.476;19.102;2023-06-22T04:43:15;97807.44;;;18.77;87.63
79028;BME280;68427;48.476;19.102;2023-06-22T04:45:41;97802.78;;;18.85;86.88
79028;BME280;68427;48.476;19.102;2023-06-22T04:48:07;97800.00;;;18.91;86.62
79028;BME280;68427;48.476;19.102;2023-06-22T04:50:35;97814.88;;;19.09;85.92
79028;BME280;68427;48.476;19.102;2023-06-22T04:53:01;97815.97;;;19.30;85.16
79028;BME280;68427;48.476;19.102;2023-06-22T04:55:32;97825.72;;;19.41;84.92
79028;BME280;68427;48.476;19.102;2023-06-22T04:57:57;97823.94;;;19.47;85.23
79028;BME280;68427;48.476;19.102;2023-06-22T05:00:30;97820.94;;;19.43;84.87
79028;BME280;68427;48.476;19.102;2023-06-22T05:02:56;97830.22;;;19.41;85.76
79028;BME280;68427;48.476;19.102;2023-06-22T05:05:23;97822.84;;;19.26;84.90
79028;BME280;68427;48.476;19.102;2023-06-22T05:07:51;97823.81;;;19.20;85.21
79028;BME280;68427;48.476;19.102;2023-06-22T05:10:18;97826.59;;;19.30;84.51
79028;BME280;68427;48.476;19.102;2023-06-22T05:12:46;97834.41;;;19.37;83.79
79028;BME280;68427;48.476;19.102;2023-06-22T05:15:12;97832.56;;;19.37;83.77
79028;BME280;68427;48.476;19.102;2023-06-22T05:17:38;97824.25;;;19.51;83.41
79028;BME280;68427;48.476;19.102;2023-06-22T05:20:10;97829.69;;;19.61;82.78
79028;BME280;68427;48.476;19.102;2023-06-22T05:22:36;97831.72;;;19.71;82.52
79028;BME280;68427;48.476;19.102;2023-06-22T05:25:02;97833.56;;;19.87;82.66
79028;BME280;68427;48.476;19.102;2023-06-22T05:27:28;97854.22;;;20.02;81.50
79028;BME280;68427;48.476;19.102;2023-06-22T05:29:55;97851.97;;;20.16;80.94
79028;BME280;68427;48.476;19.102;2023-06-22T05:32:21;97848.53;;;20.15;81.11
79028;BME280;68427;48.476;19.102;2023-06-22T05:34:46;97837.53;;;20.06;81.15
79028;BME280;68427;48.476;19.102;2023-06-22T05:37:12;97831.69;;;20.32;79.63
79028;BME280;68427;48.476;19.102;2023-06-22T05:39:38;97830.84;;;20.75;78.07
79028;BME280;68427;48.476;19.102;2023-06-22T05:42:04;97834.25;;;21.35;76.09
79028;BME280;68427;48.476;19.102;2023-06-22T05:46:57;97824.78;;;21.97;74.62
79028;BME280;68427;48.476;19.102;2023-06-22T05:49:23;97832.69;;;22.44;72.26
79028;BME280;68427;48.476;19.102;2023-06-22T05:51:50;97826.66;;;23.00;70.08
79028;BME280;68427;48.476;19.102;2023-06-22T05:54:16;97838.94;;;23.47;70.08
79028;BME280;68427;48.476;19.102;2023-06-22T05:56:43;97835.13;;;23.84;67.48
79028;BME280;68427;48.476;19.102;2023-06-22T05:59:09;97836.78;;;24.35;65.97
79028;BME280;68427;48.476;19.102;2023-06-22T06:01:34;97835.31;;;24.68;62.51
79028;BME280;68427;48.476;19.102;2023-06-22T06:04:03;97826.91;;;25.19;61.68
79028;BME280;68427;48.476;19.102;2023-06-22T06:06:29;97831.22;;;25.74;60.31
79028;BME280;68427;48.476;19.102;2023-06-22T06:08:55;97830.41;;;26.21;59.65
79028;BME280;68427;48.476;19.102;2023-06-22T06:11:21;97837.34;;;26.46;58.39
79028;BME280;68427;48.476;19.102;2023-06-22T06:13:47;97837.34;;;26.65;57.56
79028;BME280;68427;48.476;19.102;2023-06-22T06:16:13;97830.91;;;27.18;56.95
79028;BME280;68427;48.476;19.102;2023-06-22T06:18:38;97831.94;;;27.36;55.77
79028;BME280;68427;48.476;19.102;2023-06-22T06:21:05;97837.38;;;27.50;54.11
79028;BME280;68427;48.476;19.102;2023-06-22T06:23:31;97854.44;;;27.59;55.61
79028;BME280;68427;48.476;19.102;2023-06-22T06:25:56;97849.75;;;27.78;53.87
79028;BME280;68427;48.476;19.102;2023-06-22T06:28:24;97847.06;;;28.34;53.44
79028;BME280;68427;48.476;19.102;2023-06-22T06:30:49;97845.53;;;28.41;52.42
79028;BME280;68427;48.476;19.102;2023-06-22T06:33:17;97831.28;;;28.55;52.80
79028;BME280;68427;48.476;19.102;2023-06-22T06:35:43;97854.97;;;29.03;51.26
79028;BME280;68427;48.476;19.102;2023-06-22T06:38:10;97859.66;;;29.34;51.00
79028;BME280;68427;48.476;19.102;2023-06-22T06:40:36;97855.72;;;29.40;48.37
79028;BME280;68427;48.476;19.102;2023-06-22T06:43:01;97853.91;;;29.80;49.39
79028;BME280;68427;48.476;19.102;2023-06-22T06:45:27;97858.31;;;29.76;48.04
79028;BME280;68427;48.476;19.102;2023-06-22T06:47:54;97856.75;;;29.84;48.98
79028;BME280;68427;48.476;19.102;2023-06-22T06:50:19;97862.22;;;30.01;47.10
79028;BME280;68427;48.476;19.102;2023-06-22T06:52:45;97867.03;;;30.22;46.11
79028;BME280;68427;48.476;19.102;2023-06-22T06:55:12;97860.63;;;31.10;45.72
79028;BME280;68427;48.476;19.102;2023-06-22T06:57:39;97864.03;;;31.71;46.08
79028;BME280;68427;48.476;19.102;2023-06-22T07:00:07;97858.72;;;31.19;45.05
79028;BME280;68427;48.476;19.102;2023-06-22T07:02:35;97857.66;;;31.67;42.37
79028;BME280;68427;48.476;19.102;2023-06-22T07:05:01;97854.94;;;32.14;40.19
79028;BME280;68427;48.476;19.102;2023-06-22T07:07:29;97844.41;;;31.18;42.01
79028;BME280;68427;48.476;19.102;2023-06-22T07:09:54;97845.00;;;31.33;42.53
79028;BME280;68427;48.476;19.102;2023-06-22T07:12:21;97848.06;;;31.78;41.80
79028;BME280;68427;48.476;19.102;2023-06-22T07:14:47;97847.28;;;32.37;40.80
79028;BME280;68427;48.476;19.102;2023-06-22T07:17:13;97853.19;;;33.23;38.28
79028;BME280;68427;48.476;19.102;2023-06-22T07:19:39;97847.78;;;33.81;39.29
79028;BME280;68427;48.476;19.102;2023-06-22T07:22:05;97839.97;;;34.16;39.66
79028;BME280;68427;48.476;19.102;2023-06-22T07:24:31;97839.00;;;34.61;37.70
79028;BME280;68427;48.476;19.102;2023-06-22T07:26:57;97835.72;;;35.24;36.85
79028;BME280;68427;48.476;19.102;2023-06-22T07:29:25;97842.03;;;35.00;36.69
79028;BME280;68427;48.476;19.102;2023-06-22T07:31:52;97844.97;;;35.52;36.66
79028;BME280;68427;48.476;19.102;2023-06-22T07:34:18;97838.84;;;35.70;34.84
79028;BME280;68427;48.476;19.102;2023-06-22T07:36:44;97839.00;;;36.45;35.64
79028;BME280;68427;48.476;19.102;2023-06-22T07:39:10;97834.19;;;35.87;34.48
79028;BME280;68427;48.476;19.102;2023-06-22T07:41:38;97833.09;;;35.91;34.57
79028;BME280;68427;48.476;19.102;2023-06-22T07:44:04;97832.59;;;35.70;36.30
79028;BME280;68427;48.476;19.102;2023-06-22T07:46:32;97830.59;;;35.67;37.38
79028;BME280;68427;48.476;19.102;2023-06-22T07:48:57;97822.56;;;35.74;35.86
79028;BME280;68427;48.476;19.102;2023-06-22T07:51:23;97824.81;;;36.20;33.65
79028;BME280;68427;48.476;19.102;2023-06-22T07:53:49;97828.31;;;36.55;32.09
79028;BME280;68427;48.476;19.102;2023-06-22T07:56:15;97830.41;;;37.21;32.80
79028;BME280;68427;48.476;19.102;2023-06-22T07:58:44;97828.03;;;37.00;32.26
79028;BME280;68427;48.476;19.102;2023-06-22T08:01:10;97828.44;;;38.13;29.70
79028;BME280;68427;48.476;19.102;2023-06-22T08:03:37;97824.28;;;37.73;31.50
79028;BME280;68427;48.476;19.102;2023-06-22T08:06:06;97816.00;;;37.47;31.19
79028;BME280;68427;48.476;19.102;2023-06-22T08:08:34;97819.94;;;37.95;32.29
79028;BME280;68427;48.476;19.102;2023-06-22T08:10:59;97816.22;;;38.37;32.01
79028;BME280;68427;48.476;19.102;2023-06-22T08:13:25;97811.78;;;37.72;29.37
79028;BME280;68427;48.476;19.102;2023-06-22T08:15:51;97816.56;;;38.32;31.06
79028;BME280;68427;48.476;19.102;2023-06-22T08:18:16;97813.91;;;38.66;27.83
79028;BME280;68427;48.476;19.102;2023-06-22T08:20:43;97818.38;;;38.81;29.45
79028;BME280;68427;48.476;19.102;2023-06-22T08:23:09;97817.38;;;38.63;29.58
79028;BME280;68427;48.476;19.102;2023-06-22T08:25:35;97826.03;;;38.08;28.26
79028;BME280;68427;48.476;19.102;2023-06-22T08:28:01;97810.22;;;38.55;29.74
79028;BME280;68427;48.476;19.102;2023-06-22T08:30:27;97818.78;;;37.96;29.53
79028;BME280;68427;48.476;19.102;2023-06-22T08:32:52;97813.00;;;37.09;29.61
79028;BME280;68427;48.476;19.102;2023-06-22T08:35:19;97817.53;;;37.90;30.02
79028;BME280;68427;48.476;19.102;2023-06-22T08:37:47;97809.75;;;39.13;28.77
79028;BME280;68427;48.476;19.102;2023-06-22T08:40:17;97818.53;;;39.33;27.17
79028;BME280;68427;48.476;19.102;2023-06-22T08:42:43;97816.94;;;39.28;28.31
79028;BME280;68427;48.476;19.102;2023-06-22T08:45:12;97817.22;;;40.12;29.37
79028;BME280;68427;48.476;19.102;2023-06-22T08:47:38;97815.34;;;41.43;26.29
79028;BME280;68427;48.476;19.102;2023-06-22T08:50:05;97813.78;;;41.85;24.65
79028;BME280;68427;48.476;19.102;2023-06-22T08:52:32;97802.00;;;41.45;25.25
79028;BME280;68427;48.476;19.102;2023-06-22T08:54:59;97808.31;;;41.82;25.11
79028;BME280;68427;48.476;19.102;2023-06-22T08:57:24;97802.38;;;41.91;23.53
79028;BME280;68427;48.476;19.102;2023-06-22T08:59:50;97808.72;;;41.52;24.72
79028;BME280;68427;48.476;19.102;2023-06-22T09:02:17;97803.97;;;41.27;24.65
79028;BME280;68427;48.476;19.102;2023-06-22T09:04:43;97809.44;;;41.31;24.72
79028;BME280;68427;48.476;19.102;2023-06-22T09:07:09;97806.75;;;41.74;24.65
79028;BME280;68427;48.476;19.102;2023-06-22T09:09:34;97799.22;;;41.88;25.37
79028;BME280;68427;48.476;19.102;2023-06-22T09:12:01;97809.06;;;41.43;25.52
79028;BME280;68427;48.476;19.102;2023-06-22T09:14:27;97803.56;;;41.93;25.95
79028;BME280;68427;48.476;19.102;2023-06-22T09:16:53;97805.53;;;41.28;24.19
79028;BME280;68427;48.476;19.102;2023-06-22T09:19:18;97805.28;;;40.46;25.60
79028;BME280;68427;48.476;19.102;2023-06-22T09:21:44;97801.59;;;42.04;24.30
79028;BME280;68427;48.476;19.102;2023-06-22T09:24:10;97802.38;;;41.91;24.79
79028;BME280;68427;48.476;19.102;2023-06-22T09:26:35;97802.66;;;42.50;24.29
79028;BME280;68427;48.476;19.102;2023-06-22T09:29:04;97795.69;;;42.06;23.28
79028;BME280;68427;48.476;19.102;2023-06-22T09:31:30;97796.59;;;42.87;23.51
79028;BME280;68427;48.476;19.102;2023-06-22T09:33:56;97790.53;;;43.10;23.38
79028;BME280;68427;48.476;19.102;2023-06-22T09:36:22;97796.94;;;42.93;23.00
79028;BME280;68427;48.476;19.102;2023-06-22T09:38:48;97786.91;;;42.50;22.18
79028;BME280;68427;48.476;19.102;2023-06-22T09:41:14;97791.03;;;42.91;21.73
79028;BME280;68427;48.476;19.102;2023-06-22T09:43:39;97786.75;;;42.86;23.55
79028;BME280;68427;48.476;19.102;2023-06-22T09:46:07;97799.56;;;43.14;23.22
79028;BME280;68427;48.476;19.102;2023-06-22T09:48:32;97794.06;;;43.11;22.49
79028;BME280;68427;48.476;19.102;2023-06-22T09:50:58;97794.53;;;41.85;23.23
79028;BME280;68427;48.476;19.102;2023-06-22T09:53:23;97795.69;;;41.81;23.80
79028;BME280;68427;48.476;19.102;2023-06-22T09:55:49;97785.22;;;42.78;23.83
79028;BME280;68427;48.476;19.102;2023-06-22T09:58:15;97780.72;;;43.58;21.78
79028;BME280;68427;48.476;19.102;2023-06-22T10:00:40;97787.16;;;43.44;21.51
79028;BME280;68427;48.476;19.102;2023-06-22T10:03:10;97786.34;;;43.47;21.85
79028;BME280;68427;48.476;19.102;2023-06-22T10:05:36;97787.97;;;42.82;24.59
79028;BME280;68427;48.476;19.102;2023-06-22T10:08:02;97789.72;;;42.33;23.23
79028;BME280;68427;48.476;19.102;2023-06-22T10:10:28;97785.09;;;41.79;24.33
79028;BME280;68427;48.476;19.102;2023-06-22T10:12:55;97783.53;;;41.78;25.63
79028;BME280;68427;48.476;19.102;2023-06-22T10:15:22;97785.50;;;41.24;25.23
79028;BME280;68427;48.476;19.102;2023-06-22T10:17:47;97780.78;;;41.35;25.24
79028;BME280;68427;48.476;19.102;2023-06-22T10:20:14;97775.94;;;40.68;26.71
79028;BME280;68427;48.476;19.102;2023-06-22T10:22:41;97778.44;;;41.37;24.43
79028;BME280;68427;48.476;19.102;2023-06-22T10:25:08;97778.72;;;42.29;23.09
79028;BME280;68427;48.476;19.102;2023-06-22T10:27:33;97771.31;;;42.01;24.27
79028;BME280;68427;48.476;19.102;2023-06-22T10:29:59;97773.94;;;42.47;24.38
79028;BME280;68427;48.476;19.102;2023-06-22T10:32:25;97773.34;;;41.72;25.55
79028;BME280;68427;48.476;19.102;2023-06-22T10:34:51;97767.00;;;42.00;24.95
79028;BME280;68427;48.476;19.102;2023-06-22T10:37:18;97767.63;;;40.50;26.94
79028;BME280;68427;48.476;19.102;2023-06-22T10:39:43;97768.41;;;40.57;25.75
79028;BME280;68427;48.476;19.102;2023-06-22T10:42:09;97770.91;;;40.07;26.51
79028;BME280;68427;48.476;19.102;2023-06-22T10:44:34;97779.50;;;40.72;27.36
79028;BME280;68427;48.476;19.102;2023-06-22T10:47:00;97769.00;;;40.15;29.55
79028;BME280;68427;48.476;19.102;2023-06-22T10:49:26;97764.84;;;40.39;28.39
79028;BME280;68427;48.476;19.102;2023-06-22T10:51:51;97764.09;;;39.31;28.59
79028;BME280;68427;48.476;19.102;2023-06-22T10:54:18;97765.44;;;39.52;29.84
79028;BME280;68427;48.476;19.102;2023-06-22T10:56:44;97760.84;;;39.19;28.47
79028;BME280;68427;48.476;19.102;2023-06-22T10:59:10;97769.19;;;39.33;29.75
79028;BME280;68427;48.476;19.102;2023-06-22T11:01:36;97769.06;;;39.19;30.10
79028;BME280;68427;48.476;19.102;2023-06-22T11:04:02;97760.97;;;39.33;28.72
79028;BME280;68427;48.476;19.102;2023-06-22T11:06:28;97755.16;;;39.38;28.42
79028;BME280;68427;48.476;19.102;2023-06-22T11:08:53;97750.44;;;39.87;30.35
79028;BME280;68427;48.476;19.102;2023-06-22T11:11:20;97750.88;;;38.32;29.86
79028;BME280;68427;48.476;19.102;2023-06-22T11:13:46;97742.63;;;38.59;30.45
79028;BME280;68427;48.476;19.102;2023-06-22T11:16:11;97738.47;;;38.08;31.40
79028;BME280;68427;48.476;19.102;2023-06-22T11:18:38;97736.25;;;38.47;31.36
79028;BME280;68427;48.476;19.102;2023-06-22T11:21:04;97737.28;;;39.10;29.41
79028;BME280;68427;48.476;19.102;2023-06-22T11:23:29;97740.63;;;38.25;30.17
79028;BME280;68427;48.476;19.102;2023-06-22T11:25:55;97742.00;;;38.76;30.12
79028;BME280;68427;48.476;19.102;2023-06-22T11:28:22;97750.72;;;38.48;30.65
79028;BME280;68427;48.476;19.102;2023-06-22T11:30:48;97741.47;;;39.42;29.84
79028;BME280;68427;48.476;19.102;2023-06-22T11:33:14;97741.41;;;39.35;28.40
79028;BME280;68427;48.476;19.102;2023-06-22T11:35:39;97737.69;;;38.41;30.14
79028;BME280;68427;48.476;19.102;2023-06-22T11:38:05;97739.13;;;37.98;31.12
79028;BME280;68427;48.476;19.102;2023-06-22T11:40:31;97735.22;;;37.72;31.94
79028;BME280;68427;48.476;19.102;2023-06-22T11:42:56;97723.31;;;37.88;31.55
79028;BME280;68427;48.476;19.102;2023-06-22T11:45:23;97729.44;;;38.38;30.91
79028;BME280;68427;48.476;19.102;2023-06-22T11:47:49;97726.31;;;37.52;29.82
79028;BME280;68427;48.476;19.102;2023-06-22T11:50:15;97734.38;;;37.45;31.40
79028;BME280;68427;48.476;19.102;2023-06-22T11:52:40;97729.75;;;37.49;31.39
79028;BME280;68427;48.476;19.102;2023-06-22T11:55:07;97727.63;;;37.12;31.67
79028;BME280;68427;48.476;19.102;2023-06-22T11:57:33;97721.16;;;37.74;32.72
79028;BME280;68427;48.476;19.102;2023-06-22T11:59:59;97721.38;;;37.38;31.08
79028;BME280;68427;48.476;19.102;2023-06-22T12:02:26;97720.25;;;37.16;32.99
79028;BME280;68427;48.476;19.102;2023-06-22T12:04:51;97714.66;;;37.09;32.64
79028;BME280;68427;48.476;19.102;2023-06-22T12:07:18;97705.88;;;37.19;33.15
79028;BME280;68427;48.476;19.102;2023-06-22T12:09:43;97707.16;;;36.83;32.57
79028;BME280;68427;48.476;19.102;2023-06-22T12:12:09;97700.75;;;36.72;32.24
79028;BME280;68427;48.476;19.102;2023-06-22T12:14:35;97703.00;;;36.27;32.87
79028;BME280;68427;48.476;19.102;2023-06-22T12:17:01;97703.03;;;36.11;33.04
79028;BME280;68427;48.476;19.102;2023-06-22T12:19:28;97709.59;;;35.91;35.10
79028;BME280;68427;48.476;19.102;2023-06-22T12:21:54;97710.19;;;36.00;35.46
79028;BME280;68427;48.476;19.102;2023-06-22T12:24:19;97704.88;;;35.37;35.68
79028;BME280;68427;48.476;19.102;2023-06-22T12:26:45;97714.16;;;35.67;35.27
79028;BME280;68427;48.476;19.102;2023-06-22T12:29:11;97707.41;;;35.97;33.94
79028;BME280;68427;48.476;19.102;2023-06-22T12:31:36;97698.91;;;36.37;34.69
79028;BME280;68427;48.476;19.102;2023-06-22T12:34:04;97697.88;;;36.45;35.87
79028;BME280;68427;48.476;19.102;2023-06-22T12:36:31;97693.72;;;36.32;34.28
79028;BME280;68427;48.476;19.102;2023-06-22T12:38:57;97707.13;;;36.02;34.09
79028;BME280;68427;48.476;19.102;2023-06-22T12:41:22;97704.06;;;36.23;34.01
79028;BME280;68427;48.476;19.102;2023-06-22T12:43:48;97699.59;;;36.34;34.15
79028;BME280;68427;48.476;19.102;2023-06-22T12:46:14;97698.94;;;36.02;34.13
79028;BME280;68427;48.476;19.102;2023-06-22T12:48:39;97689.06;;;36.13;33.34